Exning, United Kingdom
Current Conditions -  °F | °C
As of 9:03 AM on Friday 24 Oct 2014 (Local Time) from EGUN Reporting Station
Overcast Overcast  
Wind Chill: 14°   Ceiling: 2000
Heat Index: 14°   Visibility: 6mi
Dew Point: 14°   Wind: 8mph
Humidity: 100%   Direction: 210°SSW
Pressure: 29.95"   Gusts: NA
Location:  52.27°N, 0.37°E
Report Text: EGUN 240803Z AUTO 21007KT 9999 BKN020 OVC080 14/14 A2995 RMK AO2 CIG 020V080 BKN V SCT $
Loading
Personal Weather Stations






























Interactive Weather Map
Tropical Storm Tracking
New forecast layout! Learn more

10-Day Weather Forecast

Advertisements
Track Severe Weather on mobile